Kezdőlap
METAR-TAF:

METAR-TAF

Repülőterek :

Johor Bahru, Malajzia

földrajzi szélesség: 01-38N, földrajzi hosszúság: 103-40E, magasság: 37 m

Jelenlegi meteorológiai megfigyelések

A jelentés 26 perccel ezelõtt készült, 16:00 UTC
Különbözõ irányokból fújó szél 2 kt
Hőmérséklet 26°C
Páratartalom 94%
Légköri nyomás 1009 hPa
Látótávolság: 9000 m
Kevés felhő 1200 lábon

METAR: WMKJ 281600Z VRB02KT 9000 FEW012 26/25 Q1009

Idő: 00:26 (16:26 UTC)

Előrejelzés

A jelentés 5 órával és 26 perccel ezelõtt készült, 11:00 UTC
Az előrejelzés 28-én 12 óra UTC és 29-én 12 óra UTC között érvényes
Különbözõ irányokból fújó szél 2 kt
Látótávolság 10 km, vagy több
Kevés felhő 2000 lábon
Valószínűség 30% :
29-én 07 óra UTC és 29-én 11 óra UTC között ideiglenes
Látótávolság: 4000 m
Kevés felhő 1700 lábon, Cumulonimbus.
Szórványos felhőzet 2000 lábon
zivatar, esõ,

TAF: WMKJ 281100Z 2812/2912 VRB02KT 9999 FEW020 PROB30 TEMPO 2907/2911 4000 TSRA FEW017CB SCT020

Meteorológiai megfigyelések és előrejelzések több, mint 4000 repülőtéren (METAR és TAF jelentéseket).

A térképen piros és sárga pontok jelzik az elérhető meteorológiai állomásokat.

Mozgassa az egeret a pont fölött, hogy megjelenjen az állomás neve.

Azután kattintson az időjárási megfigyelések és előrejelzések megtekintéséhez.

A térkép megváltoztatása: kattintson a fekete keresztel jelölt zöld gombra ráközelítéshez, a vonallal jelölt zöld gombra távolításhoz, vagy a zöld nyilakra a szomszédos térképek eléréséhez.


METAR-TAF: